createdAt,value
2023-01-05T00:01:40.735Z,101713.41
2023-01-05T00:04:07.954Z,101710.75
2023-01-05T00:06:35.547Z,101709.94
2023-01-05T00:09:02.187Z,101708.91
2023-01-05T00:11:47.547Z,101703.94
2023-01-05T00:14:38.750Z,101721.69
2023-01-05T00:17:24.989Z,101717.53
2023-01-05T00:20:10.244Z,101719.31
2023-01-05T00:22:55.113Z,101714.88
2023-01-05T00:25:24.701Z,101705.72
2023-01-05T00:27:54.074Z,101710.94
2023-01-05T00:30:26.236Z,101721.09
2023-01-05T00:32:53.240Z,101720.31
2023-01-05T00:35:23.387Z,101714.56
2023-01-05T00:37:50.702Z,101711.19
2023-01-05T00:40:37.283Z,101717.44
2023-01-05T00:43:04.548Z,101710.94
2023-01-05T00:45:31.366Z,101722.63
2023-01-05T00:47:58.444Z,101723.19
2023-01-05T00:50:25.235Z,101720.56
2023-01-05T00:52:51.667Z,101731.53
2023-01-05T00:55:18.366Z,101736.22
2023-01-05T00:57:45.546Z,101744.84
2023-01-05T01:00:16.029Z,101739.88
2023-01-05T01:02:43.111Z,101748.78
2023-01-05T01:05:09.963Z,101760.25
2023-01-05T01:07:36.477Z,101744.63
2023-01-05T01:10:03.814Z,101745.44
2023-01-05T01:12:30.364Z,101747.78
2023-01-05T01:14:56.826Z,101740.50
2023-01-05T01:17:23.328Z,101741.03
2023-01-05T01:19:49.815Z,101749.91
2023-01-05T01:22:16.411Z,101750.44
2023-01-05T01:24:43.001Z,101749.38
2023-01-05T01:27:09.576Z,101755.38
2023-01-05T01:29:36.176Z,101768.16
2023-01-05T01:32:02.826Z,101762.69
2023-01-05T01:34:29.665Z,101767.13
2023-01-05T01:36:57.188Z,101773.41
2023-01-05T01:39:23.747Z,101770.50
2023-01-05T01:41:50.437Z,101773.41
2023-01-05T01:44:48.036Z,101778.66
2023-01-05T01:47:20.355Z,101781.78
2023-01-05T01:49:47.529Z,101776.56
2023-01-05T01:52:14.603Z,101782.81
2023-01-05T01:54:41.273Z,101784.41
2023-01-05T01:57:11.996Z,101773.97
2023-01-05T01:59:39.237Z,101780.97
2023-01-05T02:02:07.970Z,101788.03
2023-01-05T02:04:38.060Z,101790.09
2023-01-05T02:07:05.502Z,101805.25
2023-01-05T02:09:32.588Z,101800.03
2023-01-05T02:12:02.056Z,101814.88
2023-01-05T02:14:34.770Z,101815.69
2023-01-05T02:17:34.169Z,101808.13
2023-01-05T02:20:26.145Z,101800.03
2023-01-05T02:23:21.397Z,101815.69
2023-01-05T02:25:53.963Z,101809.69
2023-01-05T02:28:54.170Z,101813.09
2023-01-05T02:31:51.836Z,101800.56
2023-01-05T02:34:42.881Z,101816.47
2023-01-05T02:37:12.934Z,101799.00
2023-01-05T02:39:45.333Z,101812.03
2023-01-05T02:42:23.946Z,101812.03
2023-01-05T02:44:51.117Z,101816.22
2023-01-05T02:47:29.770Z,101806.06
2023-01-05T02:50:17.049Z,101819.91
2023-01-05T02:53:00.766Z,101816.25
2023-01-05T02:55:40.358Z,101822.53
2023-01-05T02:58:16.227Z,101814.16
2023-01-05T03:00:47.850Z,101818.13
2023-01-05T03:03:25.954Z,101822.03
2023-01-05T03:06:07.533Z,101820.72
2023-01-05T03:08:38.540Z,101820.97
2023-01-05T03:11:26.509Z,101824.94
2023-01-05T03:14:01.489Z,101829.63
2023-01-05T03:16:32.191Z,101822.81
2023-01-05T03:19:21.117Z,101823.59
2023-01-05T03:22:08.789Z,101816.03
2023-01-05T03:24:56.274Z,101824.63
2023-01-05T03:27:43.124Z,101818.66
2023-01-05T03:30:29.873Z,101825.66
2023-01-05T03:33:23.124Z,101822.28
2023-01-05T03:35:55.049Z,101832.97
2023-01-05T03:38:29.695Z,101838.72
2023-01-05T03:40:59.879Z,101836.38
2023-01-05T03:43:27.265Z,101837.41
2023-01-05T03:45:56.538Z,101839.75
2023-01-05T03:48:25.644Z,101846.53
2023-01-05T03:50:52.165Z,101826.97
2023-01-05T03:53:18.922Z,101829.03
2023-01-05T03:55:45.502Z,101814.16
2023-01-05T03:58:11.957Z,101819.09
2023-01-05T04:00:38.548Z,101835.56
2023-01-05T04:03:05.497Z,101835.31
2023-01-05T04:05:34.407Z,101839.72
2023-01-05T04:08:00.940Z,101841.56
2023-01-05T04:10:27.560Z,101836.59
2023-01-05T04:12:54.141Z,101837.34
2023-01-05T04:15:20.608Z,101837.34
2023-01-05T04:17:47.166Z,101840.78
2023-01-05T04:20:13.732Z,101836.34
2023-01-05T04:22:40.366Z,101848.59
2023-01-05T04:25:08.272Z,101840.78
2023-01-05T04:27:34.803Z,101842.34
2023-01-05T04:30:01.344Z,101834.75
2023-01-05T04:32:27.899Z,101835.03
2023-01-05T04:34:54.361Z,101839.72
2023-01-05T04:37:20.827Z,101847.53
2023-01-05T04:39:47.362Z,101846.72
2023-01-05T04:42:13.826Z,101849.06
2023-01-05T04:44:40.367Z,101857.69
2023-01-05T04:47:07.063Z,101857.44
2023-01-05T04:49:33.811Z,101855.59
2023-01-05T04:52:00.395Z,101858.47
2023-01-05T04:54:26.818Z,101859.50
2023-01-05T04:56:53.355Z,101858.69
2023-01-05T04:59:19.968Z,101857.94
2023-01-05T05:01:46.585Z,101863.91
2023-01-05T05:04:13.304Z,101867.34
2023-01-05T05:06:39.736Z,101871.22
2023-01-05T05:09:06.290Z,101861.59
2023-01-05T05:11:32.840Z,101868.59
2023-01-05T05:13:59.378Z,101874.88
2023-01-05T05:16:25.920Z,101884.53
2023-01-05T05:18:52.508Z,101874.63
2023-01-05T05:21:19.012Z,101881.66
2023-01-05T05:23:45.583Z,101886.84
2023-01-05T05:26:12.180Z,101890.53
2023-01-05T05:28:38.982Z,101892.34
2023-01-05T05:31:05.496Z,101897.03
2023-01-05T05:33:32.076Z,101898.59
2023-01-05T05:35:58.899Z,101903.81
2023-01-05T05:38:25.430Z,101898.84
2023-01-05T05:40:51.934Z,101905.88
2023-01-05T05:43:18.473Z,101912.41
2023-01-05T05:45:50.443Z,101926.25
2023-01-05T05:48:17.597Z,101925.97
2023-01-05T05:50:45.067Z,101921.78
2023-01-05T05:53:11.597Z,101928.81
2023-01-05T05:55:38.339Z,101929.06
2023-01-05T05:58:05.009Z,101933.25
2023-01-05T06:00:31.654Z,101930.88
2023-01-05T06:02:58.274Z,101940.28
2023-01-05T06:05:24.828Z,101936.63
2023-01-05T06:07:51.252Z,101945.78
2023-01-05T06:10:17.873Z,101944.22
2023-01-05T06:12:44.448Z,101960.66
2023-01-05T06:15:11.362Z,101947.63
2023-01-05T06:17:37.820Z,101959.63
2023-01-05T06:20:07.522Z,101958.81
2023-01-05T06:22:34.127Z,101954.66
2023-01-05T06:25:00.729Z,101966.94
2023-01-05T06:27:27.313Z,101961.19
2023-01-05T06:29:53.861Z,101964.56
2023-01-05T06:32:20.422Z,101963.78
2023-01-05T06:34:46.868Z,101973.75
2023-01-05T06:37:13.376Z,101971.13
2023-01-05T06:39:39.925Z,101970.88
2023-01-05T06:42:06.533Z,101984.19
2023-01-05T06:44:33.174Z,101986.28
2023-01-05T06:46:59.666Z,101986.03
2023-01-05T06:49:26.250Z,101998.31
2023-01-05T06:51:55.797Z,101989.94
2023-01-05T06:54:22.315Z,101991.50
2023-01-05T06:56:48.894Z,101989.44
2023-01-05T06:59:15.527Z,101994.66
2023-01-05T07:01:42.102Z,101998.31
2023-01-05T07:04:08.776Z,101993.88
2023-01-05T07:06:36.240Z,101995.41
2023-01-05T07:09:03.690Z,102003.00
2023-01-05T07:11:30.212Z,101999.63
2023-01-05T07:13:56.800Z,102005.06
2023-01-05T07:16:23.308Z,102018.91
2023-01-05T07:18:49.890Z,102018.13
2023-01-05T07:21:16.535Z,102017.59
2023-01-05T07:23:43.059Z,102021.47
2023-01-05T07:26:10.446Z,102019.66
2023-01-05T07:28:37.999Z,102020.69
2023-01-05T07:31:07.598Z,102034.53
2023-01-05T07:33:39.594Z,102023.31
2023-01-05T07:36:07.351Z,102033.75
2023-01-05T07:38:34.035Z,102026.16
2023-01-05T07:41:04.222Z,102023.78
2023-01-05T07:43:30.807Z,102024.84
2023-01-05T07:46:01.655Z,102031.06
2023-01-05T07:48:28.543Z,102043.56
2023-01-05T07:51:05.215Z,102038.59
2023-01-05T07:53:41.393Z,102038.88
2023-01-05T07:56:11.793Z,102042.50
2023-01-05T07:58:38.744Z,102042.50
2023-01-05T08:01:07.402Z,102040.13
2023-01-05T08:03:34.127Z,102048.22
2023-01-05T08:06:12.979Z,102043.78
2023-01-05T08:08:40.257Z,102055.00
2023-01-05T08:11:09.191Z,102061.81
2023-01-05T08:13:54.241Z,102060.75
2023-01-05T08:16:20.736Z,102058.69
2023-01-05T08:18:47.372Z,102064.69
2023-01-05T08:21:14.246Z,102067.28
2023-01-05T08:23:40.850Z,102064.94
2023-01-05T08:26:15.959Z,102070.16
2023-01-05T08:28:45.209Z,102074.84
2023-01-05T08:31:19.685Z,102079.78
2023-01-05T08:33:46.653Z,102089.44
2023-01-05T08:36:16.699Z,102088.97
2023-01-05T08:38:48.324Z,102098.91
2023-01-05T08:41:19.923Z,102091.31
2023-01-05T08:43:57.743Z,102092.91
2023-01-05T08:46:26.860Z,102101.50
2023-01-05T08:48:56.200Z,102103.38
2023-01-05T08:51:23.274Z,102104.72
2023-01-05T08:53:50.222Z,102108.66
2023-01-05T08:56:17.198Z,102118.31
2023-01-05T08:58:44.195Z,102119.88
2023-01-05T09:01:13.240Z,102129.00
2023-01-05T09:03:40.132Z,102124.59
2023-01-05T09:06:09.483Z,102134.53
2023-01-05T09:08:36.139Z,102131.94
2023-01-05T09:11:10.965Z,102140.28
2023-01-05T09:13:38.534Z,102142.44
2023-01-05T09:16:07.240Z,102136.16
2023-01-05T09:18:33.825Z,102139.56
2023-01-05T09:21:00.997Z,102144.81
2023-01-05T09:23:27.766Z,102145.06
2023-01-05T09:25:54.516Z,102144.06
2023-01-05T09:28:22.081Z,102144.59
2023-01-05T09:30:51.044Z,102156.13
2023-01-05T09:33:18.309Z,102155.06
2023-01-05T09:35:44.922Z,102158.75
2023-01-05T09:38:11.400Z,102166.13
2023-01-05T09:40:43.288Z,102160.41
2023-01-05T09:43:18.420Z,102170.88
2023-01-05T09:45:45.365Z,102170.41
2023-01-05T09:48:15.100Z,102175.13
2023-01-05T09:50:43.732Z,102174.09
2023-01-05T09:53:13.680Z,102177.25
2023-01-05T09:55:43.092Z,102179.34
2023-01-05T09:58:26.239Z,102186.94
2023-01-05T10:01:09.891Z,102179.16
2023-01-05T10:06:35.713Z,102183.88
2023-01-05T10:09:04.320Z,102185.47
2023-01-05T10:12:08.896Z,102190.69
2023-01-05T10:14:41.864Z,102197.00
2023-01-05T10:17:40.388Z,102187.63
2023-01-05T10:20:03.459Z,102191.84
2023-01-05T10:23:16.766Z,102184.28
2023-01-05T10:26:24.497Z,102196.88
2023-01-05T10:29:05.826Z,102199.47
2023-01-05T10:31:54.661Z,102203.91
2023-01-05T10:34:24.036Z,102207.06
2023-01-05T10:37:10.057Z,102214.13
2023-01-05T10:39:58.986Z,102219.34
2023-01-05T10:42:45.352Z,102215.69
2023-01-05T10:45:14.576Z,102224.00
2023-01-05T10:47:42.104Z,102217.75
2023-01-05T10:50:40.026Z,102217.28
2023-01-05T10:53:15.033Z,102208.94
2023-01-05T10:55:51.747Z,102208.63
2023-01-05T10:58:32.664Z,102208.94
2023-01-05T11:01:27.922Z,102205.59
2023-01-05T11:04:33.238Z,102211.13
2023-01-05T11:07:06.955Z,102202.78
2023-01-05T11:09:38.889Z,102201.19
2023-01-05T11:12:05.913Z,102207.50
2023-01-05T11:14:42.545Z,102212.25
2023-01-05T11:17:19.626Z,102205.97
2023-01-05T11:19:51.007Z,102210.94
2023-01-05T11:22:36.719Z,102209.66
2023-01-05T11:25:24.494Z,102216.47
2023-01-05T11:28:10.903Z,102213.88
2023-01-05T11:30:41.953Z,102206.56
2023-01-05T11:33:25.712Z,102210.00
2023-01-05T11:35:58.833Z,102200.38
2023-01-05T11:38:28.739Z,102210.84
2023-01-05T11:40:58.157Z,102205.91
2023-01-05T11:43:28.523Z,102208.56
2023-01-05T11:46:00.577Z,102203.38
2023-01-05T11:48:32.056Z,102206.81
2023-01-05T11:51:02.911Z,102203.44
2023-01-05T11:53:35.552Z,102200.03
2023-01-05T11:56:21.022Z,102195.59
2023-01-05T11:58:49.205Z,102192.75
2023-01-05T12:01:34.786Z,102197.47
2023-01-05T12:04:35.396Z,102184.09
2023-01-05T12:07:24.867Z,102190.84
2023-01-05T12:10:12.808Z,102201.25
2023-01-05T12:12:55.563Z,102194.22
2023-01-05T12:15:37.512Z,102201.06
2023-01-05T12:18:14.599Z,102196.13
2023-01-05T12:20:56.337Z,102202.16
2023-01-05T12:23:40.902Z,102201.09
2023-01-05T12:26:34.400Z,102201.63
2023-01-05T12:31:02.751Z,102189.84
2023-01-05T12:33:44.577Z,102187.81
2023-01-05T12:35:42.131Z,102190.47
2023-01-05T12:38:40.706Z,102184.97
2023-01-05T12:41:27.094Z,102183.09
2023-01-05T12:44:06.243Z,102188.34
2023-01-05T12:46:51.144Z,102193.25
2023-01-05T12:49:24.059Z,102191.13
2023-01-05T12:52:06.307Z,102187.97
2023-01-05T12:54:58.354Z,102190.25
2023-01-05T12:57:36.694Z,102183.44
2023-01-05T13:00:06.459Z,102189.19
2023-01-05T13:02:36.848Z,102194.38
2023-01-05T13:05:14.224Z,102189.38
2023-01-05T13:08:02.136Z,102193.56
2023-01-05T13:10:39.524Z,102188.94
2023-01-05T13:13:14.694Z,102191.28
2023-01-05T13:15:52.834Z,102191.56
2023-01-05T13:18:24.156Z,102194.66
2023-01-05T13:20:57.180Z,102192.00
2023-01-05T13:23:59.118Z,102187.53
2023-01-05T13:26:25.653Z,102188.84
2023-01-05T13:28:55.923Z,102186.47
2023-01-05T13:31:33.371Z,102194.06
2023-01-05T13:34:26.106Z,102189.88
2023-01-05T13:37:19.303Z,102182.78
2023-01-05T13:39:52.048Z,102192.47
2023-01-05T13:42:30.428Z,102189.84
2023-01-05T13:45:02.641Z,102190.38
2023-01-05T13:48:07.479Z,102189.09
2023-01-05T13:50:58.114Z,102180.22
2023-01-05T13:53:27.476Z,102182.56
2023-01-05T13:56:00.510Z,102181.00
2023-01-05T13:58:33.191Z,102178.94
2023-01-05T14:01:00.896Z,102178.19
2023-01-05T14:03:33.059Z,102174.53
2023-01-05T14:06:02.727Z,102185.78
2023-01-05T14:08:38.282Z,102170.31
2023-01-05T14:11:13.161Z,102173.69
2023-01-05T14:14:04.844Z,102167.69
2023-01-05T14:16:37.849Z,102178.38
2023-01-05T14:19:26.034Z,102175.00
2023-01-05T14:21:59.920Z,102178.63
2023-01-05T14:24:40.817Z,102169.75
2023-01-05T14:27:13.364Z,102180.47
2023-01-05T14:29:48.886Z,102187.78
2023-01-05T14:32:31.039Z,102178.88
2023-01-05T14:35:05.172Z,102183.50
2023-01-05T14:37:39.961Z,102177.44
2023-01-05T14:40:32.833Z,102178.22
2023-01-05T14:43:02.205Z,102172.16
2023-01-05T14:45:31.430Z,102183.66
2023-01-05T14:48:03.087Z,102173.97
2023-01-05T14:50:31.434Z,102174.44
2023-01-05T14:52:59.626Z,102172.34
2023-01-05T14:55:39.216Z,102172.81
2023-01-05T14:58:15.484Z,102174.13
2023-01-05T15:00:53.208Z,102172.53
2023-01-05T15:03:38.594Z,102182.97
2023-01-05T15:06:23.692Z,102180.06
2023-01-05T15:08:53.182Z,102179.78
2023-01-05T15:11:52.148Z,102181.06
2023-01-05T15:14:42.479Z,102181.03
2023-01-05T15:17:48.233Z,102192.75
2023-01-05T15:20:59.229Z,102187.25
2023-01-05T15:23:43.559Z,102178.59
2023-01-05T15:26:12.883Z,102176.25
2023-01-05T15:28:46.875Z,102181.97
2023-01-05T15:31:48.594Z,102177.78
2023-01-05T15:34:25.200Z,102179.06
2023-01-05T15:37:05.398Z,102173.03
2023-01-05T15:39:37.245Z,102175.66
2023-01-05T15:42:10.040Z,102173.56
2023-01-05T15:44:45.104Z,102172.50
2023-01-05T15:47:12.552Z,102170.41
2023-01-05T15:49:40.290Z,102170.88
2023-01-05T15:52:18.901Z,102166.41
2023-01-05T15:54:57.433Z,102172.41
2023-01-05T15:57:24.138Z,102173.19
2023-01-05T15:59:52.023Z,102164.28
2023-01-05T16:02:25.187Z,102172.13
2023-01-05T16:05:23.739Z,102170.78
2023-01-05T16:07:58.571Z,102170.25
2023-01-05T16:10:50.296Z,102171.78
2023-01-05T16:13:39.199Z,102164.69
2023-01-05T16:16:43.234Z,102157.56
2023-01-05T16:19:21.116Z,102154.94
2023-01-05T16:21:55.285Z,102152.78
2023-01-05T16:24:45.048Z,102151.47
2023-01-05T16:27:16.984Z,102149.09
2023-01-05T16:29:46.065Z,102151.16
2023-01-05T16:32:33.160Z,102138.38
2023-01-05T16:35:25.302Z,102142.81
2023-01-05T16:38:15.904Z,102135.75
2023-01-05T16:40:49.523Z,102139.94
2023-01-05T16:43:34.469Z,102139.94
2023-01-05T16:46:18.701Z,102126.38
2023-01-05T16:48:52.767Z,102141.25
2023-01-05T16:51:24.708Z,102130.00
2023-01-05T16:54:06.444Z,102138.63
2023-01-05T16:56:35.943Z,102140.44
2023-01-05T16:59:24.121Z,102141.25
2023-01-05T17:01:50.967Z,102128.44
2023-01-05T17:04:18.741Z,102135.22
2023-01-05T17:06:48.729Z,102127.66
2023-01-05T17:09:27.007Z,102128.44
2023-01-05T17:11:54.214Z,102124.78
2023-01-05T17:14:21.900Z,102130.25
2023-01-05T17:16:48.589Z,102130.81
2023-01-05T17:19:18.824Z,102129.22
2023-01-05T17:22:00.791Z,102133.66
2023-01-05T17:24:28.534Z,102130.81
2023-01-05T17:26:55.080Z,102126.06
2023-01-05T17:29:26.594Z,102120.84
2023-01-05T17:31:54.001Z,102122.44
2023-01-05T17:34:20.710Z,102109.63
2023-01-05T17:36:49.450Z,102116.41
2023-01-05T17:39:17.898Z,102115.63
2023-01-05T17:41:44.937Z,102113.25
2023-01-05T17:44:12.090Z,102109.88
2023-01-05T17:46:41.779Z,102104.66
2023-01-05T17:49:21.125Z,102104.41
2023-01-05T17:51:47.929Z,102105.19
2023-01-05T17:54:14.582Z,102104.19
2023-01-05T17:56:41.374Z,102103.38
2023-01-05T17:59:07.916Z,102091.91
2023-01-05T18:01:34.673Z,102084.88
2023-01-05T18:04:01.879Z,102088.25
2023-01-05T18:06:28.565Z,102077.03
2023-01-05T18:08:55.215Z,102083.03
2023-01-05T18:11:21.803Z,102074.19
2023-01-05T18:13:48.717Z,102074.19
2023-01-05T18:16:16.291Z,102075.50
2023-01-05T18:18:45.705Z,102068.75
2023-01-05T18:21:12.266Z,102067.69
2023-01-05T18:23:38.809Z,102065.63
2023-01-05T18:26:08.203Z,102059.63
2023-01-05T18:28:35.946Z,102074.75
2023-01-05T18:31:17.747Z,102063.56
2023-01-05T18:33:44.276Z,102058.09
2023-01-05T18:36:13.959Z,102056.25
2023-01-05T18:38:41.837Z,102058.63
2023-01-05T18:41:08.756Z,102057.59
2023-01-05T18:43:35.584Z,102053.16
2023-01-05T18:46:02.859Z,102049.28
2023-01-05T18:48:29.639Z,102047.44
2023-01-05T18:50:56.132Z,102041.22
2023-01-05T18:53:23.472Z,102040.97
2023-01-05T18:55:50.072Z,102046.72
2023-01-05T18:58:16.551Z,102043.06
2023-01-05T19:00:44.790Z,102036.56
2023-01-05T19:03:11.556Z,102035.53
2023-01-05T19:05:40.903Z,102039.47
2023-01-05T19:08:09.319Z,102042.84
2023-01-05T19:10:36.232Z,102038.16
2023-01-05T19:13:02.871Z,102031.38
2023-01-05T19:15:29.756Z,102032.94
2023-01-05T19:17:57.222Z,102036.38
2023-01-05T19:20:24.019Z,102041.31
2023-01-05T19:22:51.756Z,102041.06
2023-01-05T19:25:19.018Z,102045.03
2023-01-05T19:27:48.919Z,102046.59
2023-01-05T19:30:20.310Z,102048.94
2023-01-05T19:32:46.909Z,102051.84
2023-01-05T19:35:13.639Z,102045.81
2023-01-05T19:37:42.284Z,102057.63
2023-01-05T19:40:10.510Z,102042.97
2023-01-05T19:42:37.204Z,102054.72
2023-01-05T19:45:04.216Z,102045.88
2023-01-05T19:47:31.427Z,102044.06
2023-01-05T19:49:58.000Z,102041.19
2023-01-05T19:52:29.573Z,102032.59
2023-01-05T19:54:56.389Z,102035.19
2023-01-05T19:57:22.946Z,102042.22
2023-01-05T19:59:51.343Z,102030.50
2023-01-05T20:02:18.283Z,102030.50
2023-01-05T20:04:46.711Z,102034.69
2023-01-05T20:07:13.422Z,102034.13
2023-01-05T20:09:40.129Z,102032.03
2023-01-05T20:12:14.382Z,102023.16
2023-01-05T20:14:41.879Z,102018.41
2023-01-05T20:17:10.743Z,102015.50
2023-01-05T20:19:39.624Z,102014.19
2023-01-05T20:22:11.742Z,102011.03
2023-01-05T20:24:38.316Z,102016.75
2023-01-05T20:27:11.239Z,102017.25
2023-01-05T20:29:38.114Z,102016.72
2023-01-05T20:32:11.020Z,102010.44
2023-01-05T20:34:39.513Z,102006.81
2023-01-05T20:37:07.858Z,102014.13
2023-01-05T20:39:35.587Z,102014.69
2023-01-05T20:42:04.928Z,102005.81
2023-01-05T20:44:35.021Z,102007.91
2023-01-05T20:47:03.214Z,102010.53
2023-01-05T20:49:30.219Z,102017.88
2023-01-05T20:51:56.736Z,102011.63
2023-01-05T20:54:23.412Z,102015.81
2023-01-05T20:56:50.043Z,102018.41
2023-01-05T20:59:27.325Z,102017.94
2023-01-05T21:01:54.480Z,102010.88
2023-01-05T21:04:22.698Z,102013.47
2023-01-05T21:06:51.445Z,102013.25
2023-01-05T21:09:18.458Z,102005.41
2023-01-05T21:11:45.716Z,101993.38
2023-01-05T21:14:13.959Z,101997.56
2023-01-05T21:16:51.923Z,101987.66
2023-01-05T21:19:21.964Z,101991.84
2023-01-05T21:21:52.887Z,101989.22
2023-01-05T21:24:21.068Z,101988.44
2023-01-05T21:26:47.698Z,101996.28
2023-01-05T21:29:16.449Z,101997.31
2023-01-05T21:31:45.999Z,101997.31
2023-01-05T21:34:13.338Z,102004.88
2023-01-05T21:36:45.804Z,102001.75
2023-01-05T21:39:18.357Z,101993.91
2023-01-05T21:42:03.889Z,101996.53
2023-01-05T21:44:30.993Z,101991.81
2023-01-05T21:46:57.624Z,101988.16
2023-01-05T21:49:24.578Z,101989.22
2023-01-05T21:52:41.473Z,101997.81
2023-01-05T21:55:28.463Z,101992.59
2023-01-05T21:57:57.767Z,101992.59
2023-01-05T22:00:24.479Z,101991.81
2023-01-05T22:02:53.664Z,101983.19
2023-01-05T22:05:23.165Z,101977.19
2023-01-05T22:07:52.709Z,101982.16
2023-01-05T22:10:19.363Z,101972.75
2023-01-05T22:12:47.506Z,101979.78
2023-01-05T22:15:14.525Z,101976.16
2023-01-05T22:17:42.490Z,101970.13
2023-01-05T22:20:10.582Z,101969.34
2023-01-05T22:22:37.204Z,101973.00
2023-01-05T22:25:04.477Z,101968.28
2023-01-05T22:27:31.100Z,101969.06
2023-01-05T22:29:57.778Z,101966.72
2023-01-05T22:32:24.373Z,101957.84
2023-01-05T22:34:50.926Z,101961.50
2023-01-05T22:37:17.842Z,101965.66
2023-01-05T22:39:44.394Z,101957.31
2023-01-05T22:42:10.915Z,101961.50
2023-01-05T22:44:37.398Z,101958.09
2023-01-05T22:47:04.127Z,101957.31
2023-01-05T22:49:31.400Z,101955.72
2023-01-05T22:51:57.855Z,101956.53
2023-01-05T22:54:24.347Z,101951.56
2023-01-05T22:56:50.738Z,101961.22
2023-01-05T22:59:17.229Z,101957.56
2023-01-05T23:01:45.108Z,101958.59
2023-01-05T23:04:12.431Z,101962.00
2023-01-05T23:06:39.880Z,101962.78
2023-01-05T23:09:11.331Z,101963.81
2023-01-05T23:11:39.686Z,101956.78
2023-01-05T23:14:08.866Z,101956.53
2023-01-05T23:16:35.716Z,101951.56
2023-01-05T23:19:05.026Z,101945.78
2023-01-05T23:21:32.503Z,101944.22
2023-01-05T23:23:59.631Z,101950.47
2023-01-05T23:26:27.536Z,101943.69
2023-01-05T23:28:54.363Z,101937.94
2023-01-05T23:31:20.818Z,101945.22
2023-01-05T23:33:48.500Z,101935.84
2023-01-05T23:36:16.708Z,101935.06
2023-01-05T23:38:43.582Z,101929.03
2023-01-05T23:41:12.750Z,101923.81
2023-01-05T23:43:41.295Z,101918.59
2023-01-05T23:46:11.437Z,101924.63
2023-01-05T23:48:39.228Z,101911.81
2023-01-05T23:51:07.759Z,101913.38
2023-01-05T23:53:34.585Z,101906.34
2023-01-05T23:56:09.339Z,101902.94
2023-01-05T23:58:36.267Z,101902.94
